createdAt,value
2023-04-08T00:00:50.041Z,66.80
2023-04-08T00:03:17.256Z,66.80
2023-04-08T00:05:44.340Z,66.80
2023-04-08T00:08:11.479Z,66.80
2023-04-08T00:10:38.635Z,67.00
2023-04-08T00:13:06.777Z,66.90
2023-04-08T00:15:33.757Z,67.80
2023-04-08T00:18:01.337Z,67.20
2023-04-08T00:20:28.373Z,67.20
2023-04-08T00:22:55.370Z,67.30
2023-04-08T00:25:25.373Z,67.40
2023-04-08T00:27:52.832Z,67.30
2023-04-08T00:30:20.162Z,67.50
2023-04-08T00:32:47.184Z,67.40
2023-04-08T00:35:16.292Z,67.30
2023-04-08T00:37:43.721Z,67.50
2023-04-08T00:40:11.113Z,67.80
2023-04-08T00:42:38.812Z,67.80
2023-04-08T00:45:06.493Z,67.80
2023-04-08T00:47:37.916Z,67.90
2023-04-08T00:50:07.272Z,67.80
2023-04-08T00:52:36.516Z,67.80
2023-04-08T00:55:03.745Z,67.90
2023-04-08T00:57:30.756Z,67.90
2023-04-08T00:59:57.741Z,68.00
2023-04-08T01:02:54.271Z,68.00
2023-04-08T01:05:27.539Z,68.20
2023-04-08T01:07:54.730Z,68.00
2023-04-08T01:10:26.543Z,68.00
2023-04-08T01:12:59.946Z,68.10
2023-04-08T01:15:29.753Z,68.10
2023-04-08T01:17:59.959Z,68.10
2023-04-08T01:20:28.915Z,68.10
2023-04-08T01:23:14.922Z,68.10
2023-04-08T01:25:53.293Z,68.30
2023-04-08T01:28:24.683Z,68.20
2023-04-08T01:30:52.559Z,68.30
2023-04-08T01:33:19.979Z,68.50
2023-04-08T01:35:47.212Z,68.40
2023-04-08T01:38:20.933Z,68.50
2023-04-08T01:40:49.749Z,68.60
2023-04-08T01:43:18.867Z,68.70
2023-04-08T01:45:47.709Z,69.00
2023-04-08T01:48:16.805Z,68.80
2023-04-08T01:50:45.710Z,68.70
2023-04-08T01:53:14.009Z,68.70
2023-04-08T01:55:42.537Z,68.60
2023-04-08T01:58:12.607Z,68.80
2023-04-08T02:00:42.863Z,68.70
2023-04-08T02:03:13.022Z,68.60
2023-04-08T02:05:41.043Z,68.70
2023-04-08T02:08:10.334Z,68.70
2023-04-08T02:10:37.324Z,68.90
2023-04-08T02:13:05.462Z,69.10
2023-04-08T02:15:36.539Z,69.00
2023-04-08T02:18:15.614Z,68.90
2023-04-08T02:20:53.793Z,69.10
2023-04-08T02:23:25.470Z,69.00
2023-04-08T02:25:56.792Z,69.20
2023-04-08T02:28:29.168Z,69.20
2023-04-08T02:31:00.844Z,69.00
2023-04-08T02:33:28.590Z,69.10
2023-04-08T02:35:57.212Z,69.20
2023-04-08T02:38:24.479Z,69.00
2023-04-08T02:40:52.722Z,69.20
2023-04-08T02:43:19.691Z,69.20
2023-04-08T02:45:46.914Z,69.30
2023-04-08T02:48:15.442Z,69.20
2023-04-08T02:50:42.418Z,69.30
2023-04-08T02:53:09.846Z,69.30
2023-04-08T02:55:38.055Z,69.40
2023-04-08T02:58:05.459Z,69.40
2023-04-08T03:00:33.967Z,69.30
2023-04-08T03:03:01.945Z,69.20
2023-04-08T03:05:29.088Z,69.20
2023-04-08T03:07:56.097Z,69.30
2023-04-08T03:10:23.100Z,69.30
2023-04-08T03:12:51.616Z,69.30
2023-04-08T03:15:19.316Z,69.30
2023-04-08T03:17:46.408Z,69.40
2023-04-08T03:20:13.393Z,69.30
2023-04-08T03:22:40.436Z,69.20
2023-04-08T03:25:07.882Z,69.40
2023-04-08T03:27:34.973Z,69.60
2023-04-08T03:30:01.858Z,69.80
2023-04-08T03:32:32.894Z,69.70
2023-04-08T03:34:59.838Z,69.70
2023-04-08T03:37:27.021Z,69.70
2023-04-08T03:39:55.431Z,70.10
2023-04-08T03:42:22.783Z,70.00
2023-04-08T03:44:49.802Z,69.90
2023-04-08T03:47:17.038Z,69.80
2023-04-08T03:49:43.968Z,70.00
2023-04-08T03:52:10.910Z,70.20
2023-04-08T03:54:38.136Z,70.10
2023-04-08T03:57:05.022Z,70.20
2023-04-08T03:59:33.994Z,70.20
2023-04-08T04:02:01.020Z,70.10
2023-04-08T04:04:28.122Z,70.10
2023-04-08T04:06:56.288Z,70.20
2023-04-08T04:09:25.000Z,70.40
2023-04-08T04:11:52.628Z,70.40
2023-04-08T04:14:19.580Z,70.40
2023-04-08T04:16:46.500Z,70.60
2023-04-08T04:19:13.748Z,70.70
2023-04-08T04:21:41.032Z,70.50
2023-04-08T04:24:08.577Z,70.40
2023-04-08T04:26:36.166Z,70.70
2023-04-08T04:29:04.658Z,70.90
2023-04-08T04:31:32.848Z,70.90
2023-04-08T04:34:00.861Z,70.70
2023-04-08T04:36:28.278Z,70.80
2023-04-08T04:38:57.241Z,70.60
2023-04-08T04:41:24.790Z,70.90
2023-04-08T04:43:51.796Z,70.60
2023-04-08T04:46:18.777Z,70.90
2023-04-08T04:48:45.788Z,70.90
2023-04-08T04:51:12.777Z,70.90
2023-04-08T04:53:39.748Z,71.00
2023-04-08T04:56:06.966Z,70.90
2023-04-08T04:58:36.415Z,70.90
2023-04-08T05:01:03.750Z,71.10
2023-04-08T05:03:31.751Z,70.90
2023-04-08T05:05:58.772Z,71.10
2023-04-08T05:08:27.720Z,71.20
2023-04-08T05:10:56.571Z,71.10
2023-04-08T05:13:23.572Z,71.20
2023-04-08T05:15:50.651Z,71.20
2023-04-08T05:18:17.786Z,71.30
2023-04-08T05:20:44.906Z,71.20
2023-04-08T05:23:11.911Z,71.20
2023-04-08T05:25:38.912Z,71.20
2023-04-08T05:28:06.563Z,71.20
2023-04-08T05:30:33.604Z,72.10
2023-04-08T05:33:00.995Z,71.20
2023-04-08T05:35:28.968Z,71.20
2023-04-08T05:37:56.246Z,71.20
2023-04-08T05:40:24.956Z,71.40
2023-04-08T05:42:54.250Z,71.40
2023-04-08T05:45:21.556Z,71.30
2023-04-08T05:47:49.174Z,71.50
2023-04-08T05:50:20.134Z,71.80
2023-04-08T05:52:48.795Z,71.70
2023-04-08T05:55:16.753Z,71.80
2023-04-08T05:57:43.734Z,71.70
2023-04-08T06:00:12.662Z,71.60
2023-04-08T06:02:40.054Z,71.90
2023-04-08T06:05:07.441Z,71.70
2023-04-08T06:07:34.702Z,71.70
2023-04-08T06:10:03.499Z,72.00
2023-04-08T06:12:30.790Z,72.00
2023-04-08T06:14:59.796Z,72.00
2023-04-08T06:17:27.347Z,71.80
2023-04-08T06:19:55.788Z,72.90
2023-04-08T06:22:23.280Z,71.90
2023-04-08T06:24:50.317Z,72.00
2023-04-08T06:27:17.372Z,72.00
2023-04-08T06:29:44.684Z,71.90
2023-04-08T06:32:13.660Z,72.00
2023-04-08T06:34:41.203Z,71.80
2023-04-08T06:37:08.255Z,71.90
2023-04-08T06:39:35.377Z,71.80
2023-04-08T06:42:02.822Z,71.70
2023-04-08T06:44:46.538Z,72.10
2023-04-08T06:47:13.647Z,72.10
2023-04-08T06:49:41.513Z,71.70
2023-04-08T06:52:09.593Z,71.90
2023-04-08T06:54:36.584Z,71.80
2023-04-08T06:57:04.814Z,72.30
2023-04-08T06:59:31.880Z,72.40
2023-04-08T07:01:58.973Z,72.10
2023-04-08T07:04:27.654Z,72.70
2023-04-08T07:06:57.968Z,72.80
2023-04-08T07:09:25.010Z,72.70
2023-04-08T07:11:53.844Z,72.80
2023-04-08T07:14:20.841Z,72.60
2023-04-08T07:16:47.953Z,72.30
2023-04-08T07:19:14.976Z,72.00
2023-04-08T07:21:42.247Z,71.80
2023-04-08T07:24:09.233Z,72.50
2023-04-08T07:26:36.514Z,71.40
2023-04-08T07:29:03.475Z,71.60
2023-04-08T07:31:30.599Z,71.10
2023-04-08T07:33:57.586Z,70.60
2023-04-08T07:36:24.584Z,68.80
2023-04-08T07:38:52.250Z,68.60
2023-04-08T07:41:19.568Z,68.50
2023-04-08T07:43:47.083Z,68.50
2023-04-08T07:46:17.711Z,69.00
2023-04-08T07:48:45.237Z,68.80
2023-04-08T07:51:12.316Z,68.50
2023-04-08T07:53:40.672Z,68.10
2023-04-08T07:56:12.704Z,67.50
2023-04-08T07:58:40.735Z,66.90
2023-04-08T08:01:19.088Z,66.40
2023-04-08T08:03:49.630Z,66.40
2023-04-08T08:06:17.682Z,66.60
2023-04-08T08:08:44.818Z,66.90
2023-04-08T08:11:11.857Z,67.30
2023-04-08T08:13:38.972Z,67.60
2023-04-08T08:16:09.588Z,67.40
2023-04-08T08:18:37.115Z,68.30
2023-04-08T08:21:04.818Z,68.00
2023-04-08T08:23:34.745Z,66.10
2023-04-08T08:26:06.487Z,65.00
2023-04-08T08:28:34.114Z,61.60
2023-04-08T08:31:01.160Z,60.00
2023-04-08T08:33:28.444Z,57.50
2023-04-08T08:35:56.132Z,57.00
2023-04-08T08:38:23.273Z,56.20
2023-04-08T08:40:56.337Z,56.40
2023-04-08T08:43:27.315Z,56.90
2023-04-08T08:45:54.785Z,57.80
2023-04-08T08:48:21.878Z,57.60
2023-04-08T08:50:48.760Z,57.10
2023-04-08T08:53:16.921Z,57.10
2023-04-08T08:56:15.774Z,56.30
2023-04-08T08:58:31.066Z,56.30
2023-04-08T09:00:57.993Z,56.70
2023-04-08T09:03:30.116Z,57.00
2023-04-08T09:06:00.045Z,58.20
2023-04-08T09:08:28.273Z,58.40
2023-04-08T09:10:56.363Z,58.70
2023-04-08T09:13:24.844Z,59.30
2023-04-08T09:16:06.287Z,59.60
2023-04-08T09:18:34.418Z,59.40
2023-04-08T09:21:02.618Z,59.40
2023-04-08T09:23:46.873Z,59.30
2023-04-08T09:26:18.296Z,58.60
2023-04-08T09:29:18.247Z,58.50
2023-04-08T09:32:01.915Z,58.20
2023-04-08T09:34:29.975Z,58.30
2023-04-08T09:36:57.040Z,58.40
2023-04-08T09:39:24.301Z,58.90
2023-04-08T09:41:53.287Z,58.60
2023-04-08T09:44:22.124Z,58.70
2023-04-08T09:46:52.818Z,58.80
2023-04-08T09:49:27.347Z,59.00
2023-04-08T09:52:32.431Z,58.90
2023-04-08T09:55:09.404Z,58.80
2023-04-08T09:57:58.595Z,59.00
2023-04-08T10:00:32.455Z,59.10
2023-04-08T10:03:22.395Z,59.20
2023-04-08T10:05:52.859Z,59.50
2023-04-08T10:08:21.270Z,59.40
2023-04-08T10:10:48.626Z,59.40
2023-04-08T10:13:16.072Z,59.70
2023-04-08T10:15:43.395Z,59.70
2023-04-08T10:18:10.316Z,59.90
2023-04-08T10:20:37.570Z,60.00
2023-04-08T10:23:10.749Z,60.00
2023-04-08T10:25:38.447Z,60.30
2023-04-08T10:28:12.405Z,60.60
2023-04-08T10:30:42.083Z,60.70
2023-04-08T10:33:15.839Z,60.80
2023-04-08T10:35:47.756Z,62.60
2023-04-08T10:38:16.128Z,62.10
2023-04-08T10:40:45.738Z,61.10
2023-04-08T10:43:14.705Z,61.00
2023-04-08T10:45:47.957Z,60.00
2023-04-08T10:48:19.908Z,60.00
2023-04-08T10:51:00.264Z,60.00
2023-04-08T10:53:33.714Z,60.00
2023-04-08T10:56:13.483Z,59.60
2023-04-08T10:58:52.194Z,59.20
2023-04-08T11:01:19.886Z,60.00
2023-04-08T11:03:47.647Z,59.20
2023-04-08T11:06:14.950Z,59.00
2023-04-08T11:08:42.378Z,58.20
2023-04-08T11:11:11.689Z,58.50
2023-04-08T11:13:52.946Z,58.80
2023-04-08T11:16:22.989Z,58.10
2023-04-08T11:18:51.197Z,57.50
2023-04-08T11:21:18.494Z,57.30
2023-04-08T11:23:45.699Z,56.90
2023-04-08T11:26:15.147Z,57.60
2023-04-08T11:28:42.277Z,57.60
2023-04-08T11:31:09.793Z,58.20
2023-04-08T11:33:37.175Z,58.60
2023-04-08T11:36:04.855Z,58.50
2023-04-08T11:38:32.120Z,58.60
2023-04-08T11:41:00.102Z,58.90
2023-04-08T11:43:28.787Z,58.90
2023-04-08T11:45:55.940Z,58.70
2023-04-08T11:48:25.031Z,58.30
2023-04-08T11:51:12.691Z,58.30
2023-04-08T11:53:39.714Z,58.50
2023-04-08T11:56:47.118Z,58.50
2023-04-08T11:59:14.281Z,58.80
2023-04-08T12:01:41.636Z,58.70
2023-04-08T12:04:10.530Z,58.70
2023-04-08T12:06:37.809Z,58.70
2023-04-08T12:09:04.788Z,58.00
2023-04-08T12:11:32.074Z,57.70
2023-04-08T12:13:59.097Z,57.80
2023-04-08T12:16:26.532Z,57.70
2023-04-08T12:18:54.885Z,58.30
2023-04-08T12:21:22.618Z,58.10
2023-04-08T12:23:50.024Z,57.90
2023-04-08T12:26:17.325Z,57.20
2023-04-08T12:28:44.294Z,57.70
2023-04-08T12:31:11.560Z,56.90
2023-04-08T12:33:38.545Z,56.70
2023-04-08T12:36:05.663Z,56.50
2023-04-08T12:38:33.793Z,56.10
2023-04-08T12:41:01.008Z,56.20
2023-04-08T12:43:28.117Z,56.20
2023-04-08T12:45:55.326Z,56.20
2023-04-08T12:48:22.420Z,56.10
2023-04-08T12:50:49.466Z,56.40
2023-04-08T12:53:16.454Z,56.90
2023-04-08T12:55:44.658Z,56.90
2023-04-08T12:58:12.035Z,57.20
2023-04-08T13:00:39.036Z,56.70
2023-04-08T13:03:06.624Z,56.50
2023-04-08T13:05:43.081Z,56.90
2023-04-08T13:08:14.596Z,56.80
2023-04-08T13:10:43.783Z,56.90
2023-04-08T13:13:11.816Z,57.10
2023-04-08T13:15:38.849Z,56.90
2023-04-08T13:18:06.027Z,56.70
2023-04-08T13:20:33.704Z,56.50
2023-04-08T13:23:00.971Z,56.80
2023-04-08T13:25:28.049Z,56.90
2023-04-08T13:27:55.226Z,57.20
2023-04-08T13:30:22.442Z,57.20
2023-04-08T13:32:49.440Z,57.60
2023-04-08T13:35:16.408Z,57.60
2023-04-08T13:37:43.504Z,57.50
2023-04-08T13:40:10.921Z,57.60
2023-04-08T13:42:37.896Z,57.50
2023-04-08T13:45:05.348Z,57.50
2023-04-08T13:47:32.326Z,57.80
2023-04-08T13:49:59.341Z,58.00
2023-04-08T13:52:26.398Z,57.80
2023-04-08T13:54:53.418Z,57.80
2023-04-08T13:57:21.115Z,57.70
2023-04-08T13:59:48.110Z,57.20
2023-04-08T14:02:15.068Z,56.80
2023-04-08T14:04:43.281Z,56.70
2023-04-08T14:07:10.522Z,57.00
2023-04-08T14:09:37.574Z,58.00
2023-04-08T14:12:04.697Z,57.10
2023-04-08T14:14:32.389Z,57.00
2023-04-08T14:16:59.439Z,57.10
2023-04-08T14:19:26.853Z,56.70
2023-04-08T14:21:54.463Z,56.80
2023-04-08T14:24:23.739Z,57.00
2023-04-08T14:26:50.784Z,57.20
2023-04-08T14:29:17.793Z,57.70
2023-04-08T14:31:44.765Z,57.70
2023-04-08T14:34:11.715Z,58.00
2023-04-08T14:36:38.731Z,57.80
2023-04-08T14:39:05.823Z,57.70
2023-04-08T14:41:32.896Z,57.60
2023-04-08T14:43:59.984Z,57.60
2023-04-08T14:46:28.878Z,57.50
2023-04-08T14:48:58.817Z,57.40
2023-04-08T14:51:25.966Z,57.50
2023-04-08T14:53:53.039Z,57.40
2023-04-08T14:56:20.140Z,57.60
2023-04-08T14:58:47.224Z,57.10
2023-04-08T15:01:16.861Z,56.90
2023-04-08T15:03:45.226Z,57.20
2023-04-08T15:06:16.932Z,57.30
2023-04-08T15:08:44.339Z,57.20
2023-04-08T15:11:13.838Z,57.40
2023-04-08T15:13:41.411Z,57.20
2023-04-08T15:16:08.416Z,57.20
2023-04-08T15:18:36.294Z,57.30
2023-04-08T15:21:03.552Z,57.20
2023-04-08T15:23:30.612Z,57.20
2023-04-08T15:25:57.714Z,57.00
2023-04-08T15:28:24.949Z,57.20
2023-04-08T15:30:51.971Z,57.70
2023-04-08T15:33:20.112Z,56.90
2023-04-08T15:35:49.917Z,56.70
2023-04-08T15:38:18.497Z,56.80
2023-04-08T15:40:47.948Z,57.00
2023-04-08T15:43:15.931Z,57.20
2023-04-08T15:45:46.789Z,57.30
2023-04-08T15:48:14.403Z,57.20
2023-04-08T15:50:42.166Z,57.20
2023-04-08T15:53:11.269Z,57.10
2023-04-08T15:55:40.128Z,57.10
2023-04-08T15:58:07.758Z,57.30
2023-04-08T16:00:35.062Z,57.30
2023-04-08T16:03:02.472Z,57.40
2023-04-08T16:05:30.349Z,57.50
2023-04-08T16:07:58.101Z,57.50
2023-04-08T16:11:06.058Z,57.40
2023-04-08T16:13:34.337Z,57.30
2023-04-08T16:16:04.745Z,57.30
2023-04-08T16:18:31.810Z,57.20
2023-04-08T16:20:58.879Z,57.00
2023-04-08T16:23:26.507Z,57.00
2023-04-08T16:26:04.477Z,57.00
2023-04-08T16:28:33.611Z,56.80
2023-04-08T16:31:01.896Z,56.70
2023-04-08T16:33:39.457Z,56.80
2023-04-08T16:36:09.738Z,56.80
2023-04-08T16:38:43.583Z,57.00
2023-04-08T16:41:13.328Z,56.80
2023-04-08T16:43:43.303Z,56.90
2023-04-08T16:46:22.068Z,57.00
2023-04-08T16:48:54.828Z,57.10
2023-04-08T16:51:21.869Z,57.20
2023-04-08T16:53:58.332Z,57.20
2023-04-08T16:56:31.153Z,57.30
2023-04-08T16:59:04.313Z,57.10
2023-04-08T17:01:31.931Z,57.30
2023-04-08T17:04:01.869Z,57.40
2023-04-08T17:06:33.452Z,57.30
2023-04-08T17:09:03.784Z,57.50
2023-04-08T17:11:44.448Z,57.50
2023-04-08T17:14:14.668Z,57.40
2023-04-08T17:16:47.103Z,57.50
2023-04-08T17:19:15.836Z,57.60
2023-04-08T17:21:45.343Z,57.50
2023-04-08T17:24:14.604Z,58.10
2023-04-08T17:26:50.691Z,57.50
2023-04-08T17:29:21.724Z,57.40
2023-04-08T17:31:51.875Z,57.60
2023-04-08T17:34:19.019Z,57.70
2023-04-08T17:36:54.351Z,57.70
2023-04-08T17:39:25.390Z,57.70
2023-04-08T17:41:58.173Z,57.90
2023-04-08T17:44:30.023Z,57.70
2023-04-08T17:47:00.735Z,57.80
2023-04-08T17:49:29.452Z,57.70
2023-04-08T17:51:56.864Z,57.70
2023-04-08T17:54:29.086Z,57.60
2023-04-08T17:57:04.419Z,57.70
2023-04-08T17:59:31.785Z,57.70
2023-04-08T18:02:04.564Z,57.60
2023-04-08T18:04:34.273Z,57.60
2023-04-08T18:07:06.976Z,57.40
2023-04-08T18:09:34.460Z,57.30
2023-04-08T18:12:09.700Z,58.00
2023-04-08T18:14:36.682Z,57.50
2023-04-08T18:17:07.088Z,57.60
2023-04-08T18:19:37.102Z,57.60
2023-04-08T18:22:05.998Z,57.70
2023-04-08T18:24:33.498Z,57.50
2023-04-08T18:27:04.528Z,57.50
2023-04-08T18:29:32.190Z,57.50
2023-04-08T18:31:59.249Z,57.60
2023-04-08T18:34:27.055Z,57.70
2023-04-08T18:36:54.053Z,57.90
2023-04-08T18:39:20.921Z,57.80
2023-04-08T18:41:47.924Z,58.00
2023-04-08T18:44:14.871Z,58.10
2023-04-08T18:46:42.214Z,58.10
2023-04-08T18:49:09.231Z,58.10
2023-04-08T18:51:36.343Z,58.10
2023-04-08T18:54:03.484Z,58.20
2023-04-08T18:56:31.676Z,58.20
2023-04-08T18:58:58.758Z,58.40
2023-04-08T19:01:25.970Z,58.40
2023-04-08T19:03:53.441Z,58.40
2023-04-08T19:06:22.909Z,58.40
2023-04-08T19:08:50.029Z,58.40
2023-04-08T19:11:17.118Z,58.30
2023-04-08T19:13:44.126Z,58.40
2023-04-08T19:16:11.397Z,58.40
2023-04-08T19:18:38.492Z,58.40
2023-04-08T19:21:06.514Z,58.40
2023-04-08T19:23:33.457Z,58.80
2023-04-08T19:26:05.317Z,58.40
2023-04-08T19:28:33.465Z,58.30
2023-04-08T19:31:01.487Z,58.40
2023-04-08T19:33:28.726Z,58.40
2023-04-08T19:35:57.081Z,58.40
2023-04-08T19:38:24.502Z,58.40
2023-04-08T19:40:51.474Z,58.50
2023-04-08T19:43:18.629Z,58.50
2023-04-08T19:45:45.606Z,58.60
2023-04-08T19:48:12.530Z,58.60
2023-04-08T19:50:39.716Z,58.60
2023-04-08T19:53:06.715Z,58.60
2023-04-08T19:55:35.608Z,58.70
2023-04-08T19:58:02.626Z,58.80
2023-04-08T20:00:29.693Z,58.80
2023-04-08T20:02:56.970Z,58.80
2023-04-08T20:05:24.183Z,59.40
2023-04-08T20:07:51.354Z,59.00
2023-04-08T20:10:18.935Z,58.80
2023-04-08T20:12:46.215Z,59.00
2023-04-08T20:15:23.673Z,59.00
2023-04-08T20:17:51.582Z,58.90
2023-04-08T20:20:18.671Z,59.00
2023-04-08T20:22:46.642Z,59.00
2023-04-08T20:25:13.804Z,59.10
2023-04-08T20:27:41.403Z,59.20
2023-04-08T20:30:09.305Z,59.30
2023-04-08T20:32:38.826Z,59.30
2023-04-08T20:35:06.660Z,59.30
2023-04-08T20:37:33.773Z,59.30
2023-04-08T20:40:01.057Z,59.50
2023-04-08T20:42:28.798Z,59.50
2023-04-08T20:44:55.795Z,59.60
2023-04-08T20:47:22.806Z,59.60
2023-04-08T20:49:49.788Z,59.60
2023-04-08T20:52:18.335Z,59.60
2023-04-08T20:54:45.469Z,59.60
2023-04-08T20:57:12.407Z,59.50
2023-04-08T20:59:39.378Z,59.60
2023-04-08T21:02:07.762Z,59.60
2023-04-08T21:04:34.752Z,59.60
2023-04-08T21:07:01.854Z,59.70
2023-04-08T21:09:29.005Z,59.80
2023-04-08T21:11:56.387Z,59.80
2023-04-08T21:14:23.562Z,59.70
2023-04-08T21:16:50.544Z,60.00
2023-04-08T21:19:17.736Z,60.10
2023-04-08T21:21:46.271Z,59.70
2023-04-08T21:24:13.440Z,60.20
2023-04-08T21:26:40.669Z,61.10
2023-04-08T21:29:07.607Z,60.10
2023-04-08T21:31:36.014Z,60.10
2023-04-08T21:34:03.530Z,60.00
2023-04-08T21:36:31.467Z,60.00
2023-04-08T21:38:58.458Z,60.00
2023-04-08T21:41:25.420Z,60.00
2023-04-08T21:43:53.836Z,59.90
2023-04-08T21:46:21.783Z,59.90
2023-04-08T21:48:48.765Z,59.90
2023-04-08T21:51:20.076Z,60.20
2023-04-08T21:53:48.854Z,60.30
2023-04-08T21:56:17.471Z,60.40
2023-04-08T21:58:44.396Z,60.40
2023-04-08T22:01:11.489Z,60.40
2023-04-08T22:03:38.571Z,60.40
2023-04-08T22:06:10.939Z,60.40
2023-04-08T22:08:39.824Z,60.40
2023-04-08T22:11:08.975Z,60.30
2023-04-08T22:13:36.069Z,60.40
2023-04-08T22:16:03.273Z,60.60
2023-04-08T22:18:30.607Z,61.30
2023-04-08T22:20:57.620Z,60.40
2023-04-08T22:23:24.545Z,60.50
2023-04-08T22:25:51.613Z,60.60
2023-04-08T22:28:18.686Z,60.50
2023-04-08T22:30:46.120Z,60.50
2023-04-08T22:33:13.174Z,60.60
2023-04-08T22:35:40.612Z,60.70
2023-04-08T22:38:07.599Z,60.70
2023-04-08T22:40:37.820Z,60.50
2023-04-08T22:43:04.840Z,60.60
2023-04-08T22:45:31.935Z,60.50
2023-04-08T22:47:59.815Z,60.40
2023-04-08T22:50:26.880Z,60.40
2023-04-08T22:52:55.206Z,60.40
2023-04-08T22:55:22.888Z,60.40
2023-04-08T22:57:49.892Z,60.50
2023-04-08T23:00:17.067Z,60.40
2023-04-08T23:02:44.159Z,60.30
2023-04-08T23:05:12.673Z,60.40
2023-04-08T23:07:39.663Z,60.60
2023-04-08T23:10:08.409Z,60.60
2023-04-08T23:12:36.230Z,60.50
2023-04-08T23:15:04.501Z,60.60
2023-04-08T23:17:33.360Z,60.50
2023-04-08T23:20:00.937Z,60.50
2023-04-08T23:22:27.900Z,60.50
2023-04-08T23:24:54.896Z,60.50
2023-04-08T23:27:24.166Z,60.50
2023-04-08T23:29:52.063Z,60.30
2023-04-08T23:32:20.189Z,60.20
2023-04-08T23:34:47.185Z,61.30
2023-04-08T23:37:14.164Z,60.50
2023-04-08T23:39:41.290Z,60.40
2023-04-08T23:42:08.241Z,60.30
2023-04-08T23:44:35.497Z,60.30
2023-04-08T23:47:03.153Z,60.30
2023-04-08T23:49:31.197Z,60.30
2023-04-08T23:51:58.327Z,60.50
2023-04-08T23:54:25.357Z,60.50
2023-04-08T23:56:52.323Z,60.40
2023-04-08T23:59:19.294Z,60.60
